Time;durP1;ratioP1;P1;durP2;ratioP2;P2;SDS_P1;SDS_P2;PMS_P1;PMS_P2;Temp;Humidity;BMP_temperature;BMP_pressure;BME280_temperature;BME280_humidity;BME280_pressure;Samples;Min_cycle;Max_cycle;Signal;HPM_P1;HPM_P2
2022/04/15 00:02:03;;;;;;;8.13;7.33;;;;;;;13.20;100.00;96677.44;5046165;27;104143;-64
2022/04/15 00:04:31;;;;;;;9.33;8.07;;;;;;;13.27;100.00;96681.47;5026305;28;102170;-64
2022/04/15 00:06:59;;;;;;;10.40;8.33;;;;;;;13.44;100.00;96678.59;5043254;27;103761;-64
2022/04/15 00:09:28;;;;;;;14.63;9.13;;;;;;;13.61;100.00;96684.53;5010425;28;104276;-64
2022/04/15 00:11:56;;;;;;;12.57;9.23;;;;;;;13.66;100.00;96685.38;5026394;28;101911;-65
2022/04/15 00:14:24;;;;;;;9.37;7.27;;;;;;;13.80;100.00;96688.38;5043037;27;105163;-64
2022/04/15 00:16:51;;;;;;;9.73;6.97;;;;;;;13.90;100.00;96685.72;5042442;27;105464;-64
2022/04/15 00:19:17;;;;;;;9.03;6.63;;;;;;;13.92;100.00;96687.06;5009302;28;101879;-64
2022/04/15 00:21:45;;;;;;;7.40;6.70;;;;;;;13.90;100.00;96689.19;5043069;27;104863;-64
2022/04/15 00:24:12;;;;;;;7.50;6.80;;;;;;;13.84;100.00;96684.88;5045938;27;105650;-64
2022/04/15 00:26:41;;;;;;;8.73;7.03;;;;;;;13.85;100.00;96686.50;5026040;28;105102;-64
2022/04/15 00:29:08;;;;;;;7.43;6.60;;;;;;;13.67;100.00;96683.50;5042567;27;105019;-64
2022/04/15 00:31:35;;;;;;;9.03;7.20;;;;;;;13.61;100.00;96695.22;5026128;28;101929;-64
2022/04/15 00:34:03;;;;;;;8.43;7.27;;;;;;;13.56;100.00;96693.34;5025854;28;104788;-65
2022/04/15 00:36:30;;;;;;;8.80;7.93;;;;;;;13.44;100.00;96689.28;5025265;28;105371;-65
2022/04/15 00:38:57;;;;;;;8.63;7.00;;;;;;;13.47;100.00;96683.44;5043140;27;101901;-65
2022/04/15 00:41:24;;;;;;;8.93;7.50;;;;;;;13.46;100.00;96679.16;5042944;27;105110;-66
2022/04/15 00:43:55;;;;;;;7.83;6.97;;;;;;;13.38;100.00;96682.31;5045527;27;105240;-65
2022/04/15 00:46:23;;;;;;;7.43;6.43;;;;;;;13.38;100.00;96685.81;5025691;28;105215;-65
2022/04/15 00:48:50;;;;;;;7.93;6.60;;;;;;;13.35;100.00;96688.19;5025285;28;105882;-65
2022/04/15 00:51:17;;;;;;;7.90;6.73;;;;;;;13.33;100.00;96687.63;5025700;28;102017;-65
2022/04/15 00:53:46;;;;;;;7.80;7.00;;;;;;;13.27;100.00;96683.34;5008873;28;105590;-65
2022/04/15 00:56:14;;;;;;;7.20;6.50;;;;;;;13.25;100.00;96693.47;5041418;27;105115;-65
2022/04/15 00:58:42;;;;;;;6.80;6.10;;;;;;;13.16;100.00;96697.69;5042486;27;102442;-65
2022/04/15 01:01:11;;;;;;;8.70;7.33;;;;;;;13.03;100.00;96695.50;5025476;28;105128;-65
2022/04/15 01:03:38;;;;;;;8.80;7.27;;;;;;;12.97;100.00;96701.88;5025080;28;105103;-65
2022/04/15 01:06:07;;;;;;;8.83;7.67;;;;;;;12.96;100.00;96700.22;5028820;28;102146;-65
2022/04/15 01:08:39;;;;;;;8.30;6.97;;;;;;;13.02;100.00;96705.34;5024742;28;105072;-65
2022/04/15 01:11:07;;;;;;;8.47;7.33;;;;;;;13.02;100.00;96704.56;5008891;28;102255;-65
2022/04/15 01:13:38;;;;;;;8.60;7.80;;;;;;;12.96;100.00;96713.59;5008848;28;105643;-65
2022/04/15 01:16:07;;;;;;;8.27;7.47;;;;;;;12.92;100.00;96723.16;5008054;28;105320;-65
2022/04/15 01:18:35;;;;;;;9.10;7.93;;;;;;;12.95;100.00;96725.28;5025179;28;101912;-65
2022/04/15 01:21:04;;;;;;;9.93;8.20;;;;;;;12.96;100.00;96714.41;5008648;28;105860;-65
2022/04/15 01:23:32;;;;;;;8.40;7.60;;;;;;;12.95;100.00;96722.63;5041715;27;105687;-65
2022/04/15 01:25:59;;;;;;;7.97;7.27;;;;;;;12.94;100.00;96726.34;5025298;28;101927;-65
2022/04/15 01:28:26;;;;;;;8.20;7.40;;;;;;;12.92;100.00;96728.50;5044945;27;105111;-65
2022/04/15 01:30:53;;;;;;;8.67;7.40;;;;;;;12.95;100.00;96726.09;5042137;27;101979;-65
2022/04/15 01:33:21;;;;;;;8.33;7.37;;;;;;;12.99;100.00;96723.75;5025406;28;105165;-65
2022/04/15 01:35:48;;;;;;;9.70;8.03;;;;;;;13.06;100.00;96729.66;5024680;28;105733;-66
2022/04/15 01:38:17;;;;;;;8.83;7.50;;;;;;;13.09;100.00;96732.63;5042087;27;102542;-65
2022/04/15 01:40:46;;;;;;;8.93;8.03;;;;;;;13.18;100.00;96727.59;5025173;28;104218;-65
2022/04/15 01:43:13;;;;;;;8.40;7.60;;;;;;;13.23;100.00;96739.13;5008996;28;102679;-65
2022/04/15 01:45:40;;;;;;;9.00;8.00;;;;;;;13.30;100.00;96738.91;5024923;28;101976;-66
2022/04/15 01:48:07;;;;;;;8.40;7.63;;;;;;;13.33;100.00;96731.19;5009628;28;102331;-65
2022/04/15 01:50:34;;;;;;;8.27;7.50;;;;;;;13.39;100.00;96738.16;5044546;27;105870;-65
2022/04/15 01:53:01;;;;;;;8.47;7.70;;;;;;;13.38;100.00;96733.06;5042045;27;104939;-65
2022/04/15 01:55:28;;;;;;;8.57;7.73;;;;;;;13.39;100.00;96730.16;5040848;27;105765;-65
2022/04/15 01:57:57;;;;;;;11.00;9.43;;;;;;;13.53;100.00;96735.81;5007871;28;102298;-65
2022/04/15 02:00:23;;;;;;;10.30;9.33;;;;;;;13.50;100.00;96731.00;5024861;28;105033;-65
2022/04/15 02:02:50;;;;;;;10.37;9.37;;;;;;;13.52;100.00;96735.00;5041107;27;105057;-65
2022/04/15 02:05:17;;;;;;;10.17;9.17;;;;;;;13.46;100.00;96733.38;5041673;27;101899;-65
2022/04/15 02:07:44;;;;;;;8.43;7.60;;;;;;;13.40;100.00;96725.63;5009610;28;102439;-65
2022/04/15 02:10:12;;;;;;;12.67;8.20;;;;;;;13.37;100.00;96734.13;5008551;28;102677;-65
2022/04/15 02:12:39;;;;;;;9.40;8.50;;;;;;;13.23;100.00;96743.66;5016404;28;101782;-65
2022/04/15 02:15:09;;;;;;;9.90;9.00;;;;;;;13.29;100.00;96742.63;5012214;28;102698;-65
2022/04/15 02:17:36;;;;;;;12.90;9.33;;;;;;;13.38;100.00;96744.56;5012859;28;101777;-65
2022/04/15 02:20:05;;;;;;;10.77;9.87;;;;;;;13.52;100.00;96748.38;5044736;27;105556;-65
2022/04/15 02:22:32;;;;;;;10.37;9.40;;;;;;;13.56;100.00;96746.78;5012437;28;103006;-66
2022/04/15 02:25:00;;;;;;;10.83;9.83;;;;;;;13.64;100.00;96748.16;5028091;28;101901;-65
2022/04/15 02:27:27;;;;;;;10.90;9.80;;;;;;;13.68;100.00;96743.91;5027955;28;104481;-65
2022/04/15 02:29:54;;;;;;;10.60;9.60;;;;;;;13.68;100.00;96733.22;5027236;28;105861;-65
2022/04/15 02:32:23;;;;;;;10.67;9.67;;;;;;;13.70;100.00;96731.09;5028095;28;101909;-65
2022/04/15 02:34:51;;;;;;;12.37;10.20;;;;;;;13.70;100.00;96728.41;5030521;28;104895;-65
2022/04/15 02:37:18;;;;;;;10.10;9.10;;;;;;;13.56;100.00;96725.41;5026882;28;102188;-65
2022/04/15 02:39:45;;;;;;;10.77;9.67;;;;;;;13.58;100.00;96728.63;5044769;27;105316;-66
2022/04/15 02:42:12;;;;;;;11.03;9.97;;;;;;;13.27;100.00;96736.75;5010455;28;105830;-65
2022/04/15 02:44:40;;;;;;;13.43;10.40;;;;;;;13.15;100.00;96738.81;5011207;28;101831;-65
2022/04/15 02:47:08;;;;;;;11.20;10.10;;;;;;;13.09;100.00;96742.53;5026514;28;104761;-65
2022/04/15 02:49:37;;;;;;;11.37;10.37;;;;;;;13.06;100.00;96756.38;5043002;27;105360;-65
2022/04/15 02:52:06;;;;;;;14.33;12.40;;;;;;;13.03;100.00;96755.00;5009867;28;101946;-65
2022/04/15 02:54:33;;;;;;;13.47;12.10;;;;;;;12.99;100.00;96750.47;5029569;28;105590;-65
2022/04/15 02:57:00;;;;;;;12.77;11.57;;;;;;;13.07;100.00;96748.09;5043093;27;101965;-65
2022/04/15 02:59:26;;;;;;;13.80;12.50;;;;;;;13.10;100.00;96752.13;5011234;28;102316;-65
2022/04/15 03:01:54;;;;;;;12.57;11.20;;;;;;;13.12;100.00;96745.47;5025806;28;103850;-65
2022/04/15 03:04:20;;;;;;;15.57;14.07;;;;;;;13.04;100.00;96745.16;5043378;27;101954;-65
2022/04/15 03:06:49;;;;;;;16.07;14.50;;;;;;;13.06;100.00;96741.16;5026219;28;105660;-65
2022/04/15 03:09:16;;;;;;;17.53;15.80;;;;;;;13.12;100.00;96744.66;5026055;28;104757;-65
2022/04/15 03:11:43;;;;;;;17.40;15.70;;;;;;;13.11;100.00;96738.53;5010759;28;102233;-65
2022/04/15 03:14:10;;;;;;;15.17;13.77;;;;;;;13.09;100.00;96731.84;5010962;28;102398;-65
2022/04/15 03:16:37;;;;;;;16.87;15.27;;;;;;;12.93;100.00;96733.56;5013947;28;102678;-65
2022/04/15 03:19:04;;;;;;;15.80;14.20;;;;;;;12.99;100.00;96729.09;5025850;28;105731;-65
2022/04/15 03:21:32;;;;;;;15.47;13.87;;;;;;;13.04;100.00;96731.81;5008443;28;105872;-65
2022/04/15 03:24:00;;;;;;;14.33;12.97;;;;;;;13.05;100.00;96730.75;5010176;28;101744;-65
2022/04/15 03:26:27;;;;;;;15.90;14.40;;;;;;;12.95;100.00;96738.63;5026096;28;104870;-65
2022/04/15 03:28:55;;;;;;;15.10;13.67;;;;;;;12.65;100.00;96743.75;5008623;28;105353;-65
2022/04/15 03:31:22;;;;;;;14.00;12.60;;;;;;;12.72;100.00;96750.50;5010407;28;101868;-65
2022/04/15 03:33:48;;;;;;;13.97;12.50;;;;;;;12.47;100.00;96746.78;5011007;28;102305;-65
2022/04/15 03:36:16;;;;;;;17.50;15.90;;;;;;;12.46;100.00;96751.34;5008619;28;104239;-65
2022/04/15 03:38:43;;;;;;;16.67;14.97;;;;;;;12.58;100.00;96765.31;5029295;28;101957;-65
2022/04/15 03:41:11;;;;;;;16.83;15.33;;;;;;;12.60;100.00;96767.72;5009999;28;101804;-65
2022/04/15 03:43:40;;;;;;;22.13;20.03;;;;;;;12.52;100.00;96776.19;5025601;28;101928;-65
2022/04/15 03:46:08;;;;;;;25.17;22.77;;;;;;;12.59;100.00;96774.13;5025897;28;105259;-65
2022/04/15 03:48:35;;;;;;;26.57;23.77;;;;;;;12.59;100.00;96774.91;5025504;28;104682;-65
2022/04/15 03:51:01;;;;;;;24.63;22.13;;;;;;;12.61;100.00;96772.81;5010208;28;101946;-65
2022/04/15 03:53:28;;;;;;;25.43;22.87;;;;;;;12.61;100.00;96788.00;5010507;28;102339;-65
2022/04/15 03:55:55;;;;;;;27.30;24.50;;;;;;;12.68;100.00;96783.25;5007885;28;105375;-65
2022/04/15 03:58:24;;;;;;;26.67;24.17;;;;;;;12.70;100.00;96773.16;5010231;28;101823;-65
2022/04/15 04:00:51;;;;;;;26.53;23.80;;;;;;;12.76;100.00;96777.47;5012854;28;102957;-65
2022/04/15 04:03:18;;;;;;;24.37;22.07;;;;;;;12.81;100.00;96786.31;5042534;27;101805;-65
2022/04/15 04:05:45;;;;;;;25.73;23.23;;;;;;;12.76;100.00;96794.28;5025257;28;105516;-65
2022/04/15 04:08:12;;;;;;;28.10;25.33;;;;;;;12.75;100.00;96802.56;5024811;28;106436;-65
2022/04/15 04:10:39;;;;;;;28.10;25.20;;;;;;;12.72;100.00;96792.38;5025570;28;101997;-65
2022/04/15 04:13:06;;;;;;;27.83;25.23;;;;;;;12.73;100.00;96789.47;5025309;28;104925;-65
2022/04/15 04:15:36;;;;;;;29.20;26.17;;;;;;;12.76;100.00;96793.50;5024909;28;105315;-65
2022/04/15 04:18:03;;;;;;;26.83;24.33;;;;;;;12.78;100.00;96794.03;5025399;28;101856;-65
2022/04/15 04:20:32;;;;;;;29.30;26.47;;;;;;;12.66;100.00;96794.22;5024926;28;105133;-65
2022/04/15 04:22:59;;;;;;;28.03;25.20;;;;;;;12.67;100.00;96800.34;5011278;28;104089;-65
2022/04/15 04:25:26;;;;;;;25.47;22.97;;;;;;;12.65;100.00;96808.59;5009545;28;104076;-65
2022/04/15 04:27:54;;;;;;;26.20;23.53;;;;;;;12.69;100.00;96803.53;5023289;27;105720;-65
2022/04/15 04:30:21;;;;;;;23.93;21.63;;;;;;;12.69;100.00;96803.53;5029662;28;101979;-65
2022/04/15 04:32:50;;;;;;;22.17;20.27;;;;;;;12.71;100.00;96804.13;5028336;28;105321;-65
2022/04/15 04:35:19;;;;;;;24.87;22.47;;;;;;;12.65;100.00;96792.56;5027666;28;105346;-65
2022/04/15 04:37:46;;;;;;;26.90;24.20;;;;;;;12.68;100.00;96793.94;5029323;27;101964;-65
2022/04/15 04:40:14;;;;;;;28.83;26.00;;;;;;;12.64;100.00;96800.84;5028165;28;105017;-65
2022/04/15 04:42:42;;;;;;;28.07;25.37;;;;;;;12.63;100.00;96797.38;5029459;28;102953;-65
2022/04/15 04:45:10;;;;;;;28.47;25.67;;;;;;;12.58;100.00;96801.84;5031463;28;102069;-65
2022/04/15 04:47:39;;;;;;;29.93;26.73;;;;;;;12.53;100.00;96797.28;5028974;27;102599;-65
2022/04/15 04:50:11;;;;;;;31.17;27.97;;;;;;;12.59;100.00;96800.81;5029465;27;101837;-65
2022/04/15 04:52:38;;;;;;;30.77;27.70;;;;;;;12.56;100.00;96810.13;5028690;28;102241;-65
2022/04/15 04:55:07;;;;;;;30.27;27.43;;;;;;;12.57;100.00;96817.06;5026796;28;105383;-66
2022/04/15 04:57:34;;;;;;;29.97;26.90;;;;;;;12.51;100.00;96822.59;5029535;27;101965;-65
2022/04/15 05:00:01;;;;;;;32.03;28.93;;;;;;;12.52;100.00;96829.53;5029550;28;102405;-65
2022/04/15 05:02:28;;;;;;;31.03;28.03;;;;;;;12.60;100.00;96827.22;5028622;28;103240;-65
2022/04/15 05:04:55;;;;;;;31.53;28.23;;;;;;;12.64;100.00;96832.88;5032598;28;101905;-65
2022/04/15 05:07:23;;;;;;;33.93;30.57;;;;;;;12.67;100.00;96830.50;5028639;28;102638;-65
2022/04/15 05:09:51;;;;;;;31.03;28.03;;;;;;;12.60;100.00;96829.09;5027641;28;101913;-65
2022/04/15 05:12:19;;;;;;;30.47;27.40;;;;;;;12.63;100.00;96826.72;5028909;28;102569;-65
2022/04/15 05:14:46;;;;;;;31.37;28.37;;;;;;;12.66;100.00;96825.41;5027191;28;105424;-65
2022/04/15 05:17:12;;;;;;;29.23;26.37;;;;;;;12.69;100.00;96835.56;5027660;28;101836;-65
2022/04/15 05:19:39;;;;;;;29.40;26.60;;;;;;;12.70;100.00;96832.66;5029036;27;102445;-65
2022/04/15 05:22:06;;;;;;;27.03;24.63;;;;;;;12.72;100.00;96835.06;5028482;28;104219;-65
2022/04/15 05:24:35;;;;;;;27.37;24.87;;;;;;;12.73;100.00;96842.84;5027303;28;102111;-65
2022/04/15 05:27:01;;;;;;;29.70;26.90;;;;;;;12.70;100.00;96832.66;5030334;28;105323;-65
2022/04/15 05:29:28;;;;;;;30.73;27.83;;;;;;;12.68;100.00;96844.63;5027684;28;101985;-65
2022/04/15 05:31:55;;;;;;;30.70;27.63;;;;;;;12.67;100.00;96843.84;5026973;28;105612;-65
2022/04/15 05:34:22;;;;;;;30.97;27.93;;;;;;;12.69;100.00;96839.06;5028498;28;102538;-65
2022/04/15 05:36:49;;;;;;;31.67;28.67;;;;;;;12.68;100.00;96849.97;5027362;28;102031;-65
2022/04/15 05:39:17;;;;;;;33.00;29.60;;;;;;;12.58;100.00;96841.84;5026968;28;105006;-65
2022/04/15 05:41:45;;;;;;;30.33;27.37;;;;;;;12.68;100.00;96855.31;5026731;28;105343;-65
2022/04/15 05:44:13;;;;;;;32.07;28.77;;;;;;;12.58;100.00;96855.19;5027602;28;102114;-65
2022/04/15 05:46:42;;;;;;;31.30;28.10;;;;;;;12.66;100.00;96852.91;5029090;27;105507;-65
2022/04/15 05:49:13;;;;;;;31.27;28.17;;;;;;;12.61;100.00;96854.72;5033692;28;105872;-65
2022/04/15 05:51:42;;;;;;;31.27;28.20;;;;;;;12.63;100.00;96868.59;5047484;27;103641;-65
2022/04/15 05:54:09;;;;;;;32.30;29.20;;;;;;;12.64;100.00;96860.34;5030430;28;103959;-65
2022/04/15 05:56:36;;;;;;;32.93;29.60;;;;;;;12.72;100.00;96867.91;5031538;27;102036;-65
2022/04/15 05:59:05;;;;;;;32.67;29.37;;;;;;;12.79;100.00;96867.69;5032104;28;102903;-65
2022/04/15 06:01:32;;;;;;;32.60;29.37;;;;;;;12.77;100.00;96873.31;5063992;27;104290;-65
2022/04/15 06:03:59;;;;;;;30.50;27.60;;;;;;;12.81;100.00;96871.72;5064622;27;101903;-65
2022/04/15 06:06:25;;;;;;;32.20;29.10;;;;;;;12.77;100.00;96880.50;5030453;28;104920;-65
2022/04/15 06:08:53;;;;;;;31.30;28.20;;;;;;;12.74;100.00;96876.47;5029892;28;105040;-65
2022/04/15 06:11:20;;;;;;;30.33;27.23;;;;;;;12.65;100.00;96888.63;5033981;28;101973;-65
2022/04/15 06:13:50;;;;;;;30.27;27.20;;;;;;;12.55;100.00;96888.56;5030100;28;105982;-65
2022/04/15 06:16:20;;;;;;;30.37;27.40;;;;;;;12.61;100.00;96892.88;5030402;28;101816;-65
2022/04/15 06:18:48;;;;;;;31.27;28.07;;;;;;;12.67;100.00;96893.72;5030625;28;105313;-65
2022/04/15 06:21:15;;;;;;;30.97;27.80;;;;;;;12.58;100.00;96893.38;5029671;28;105253;-65
2022/04/15 06:23:42;;;;;;;32.13;29.03;;;;;;;12.56;100.00;96890.16;5030261;28;102516;-65
2022/04/15 06:26:09;;;;;;;33.07;29.60;;;;;;;12.45;100.00;96898.28;5030341;28;104044;-65
2022/04/15 06:28:36;;;;;;;32.33;29.23;;;;;;;12.44;100.00;96892.13;5029586;28;105402;-65
2022/04/15 06:31:03;;;;;;;33.87;30.00;;;;;;;12.52;100.00;96893.56;5030020;28;101939;-65
2022/04/15 06:33:32;;;;;;;31.50;28.40;;;;;;;12.52;100.00;96896.22;5033024;28;105441;-65
2022/04/15 06:36:00;;;;;;;32.33;29.23;;;;;;;12.47;100.00;96898.84;5030196;28;101899;-65
2022/04/15 06:38:28;;;;;;;34.13;30.60;;;;;;;12.48;100.00;96900.47;5030018;28;105151;-65
2022/04/15 06:40:55;;;;;;;33.57;30.30;;;;;;;12.52;100.00;96904.22;5029434;28;103818;-65
2022/04/15 06:43:22;;;;;;;32.37;29.17;;;;;;;12.54;100.00;96902.13;5030032;28;101832;-65
2022/04/15 06:45:49;;;;;;;33.27;29.97;;;;;;;12.56;100.00;96906.16;5030001;28;104845;-65
2022/04/15 06:48:16;;;;;;;33.53;30.30;;;;;;;12.65;100.00;96909.97;5029476;28;105538;-65
2022/04/15 06:50:44;;;;;;;33.07;29.67;;;;;;;12.66;100.00;96910.81;5029580;28;101853;-65
2022/04/15 06:53:12;;;;;;;34.67;31.17;;;;;;;12.72;100.00;96910.63;5031652;28;102328;-65
2022/04/15 06:55:39;;;;;;;33.83;30.33;;;;;;;12.68;100.00;96909.50;5033646;27;102001;-65
2022/04/15 06:58:06;;;;;;;33.27;29.73;;;;;;;12.52;100.00;96907.72;5029485;27;103480;-65
2022/04/15 07:00:34;;;;;;;32.37;28.97;;;;;;;12.63;100.00;96911.28;5028898;28;105374;-65
2022/04/15 07:03:00;;;;;;;35.53;31.93;;;;;;;12.62;100.00;96902.50;5013253;28;101931;-65
2022/04/15 07:05:27;;;;;;;34.67;31.37;;;;;;;12.62;100.00;96909.69;5029901;28;102604;-65
2022/04/15 07:07:56;;;;;;;34.23;30.50;;;;;;;12.64;100.00;96912.94;5030507;28;103063;-65
2022/04/15 07:10:23;;;;;;;33.20;29.90;;;;;;;12.63;100.00;96916.63;5029610;28;102356;-65
2022/04/15 07:12:50;;;;;;;34.53;30.70;;;;;;;12.68;100.00;96919.34;5029681;28;105310;-65
2022/04/15 07:15:20;;;;;;;32.80;29.27;;;;;;;12.77;100.00;96924.00;5033838;28;102546;-65
2022/04/15 07:17:47;;;;;;;35.87;31.93;;;;;;;12.86;100.00;96919.81;5031088;28;102382;-65
2022/04/15 07:20:14;;;;;;;34.93;31.40;;;;;;;12.82;100.00;96920.59;5028573;28;104952;-65
2022/04/15 07:22:41;;;;;;;34.97;31.43;;;;;;;12.92;100.00;96920.69;5029453;28;101871;-65
2022/04/15 07:25:10;;;;;;;36.77;32.53;;;;;;;12.91;100.00;96919.09;5029272;28;102534;-65
2022/04/15 07:27:37;;;;;;;37.57;33.57;;;;;;;12.87;100.00;96910.75;5029161;28;104081;-65
2022/04/15 07:30:05;;;;;;;37.70;33.23;;;;;;;12.91;100.00;96919.09;5029244;28;102140;-65
2022/04/15 07:32:32;;;;;;;35.80;32.20;;;;;;;12.90;100.00;96912.94;5029373;28;104846;-65
2022/04/15 07:34:58;;;;;;;35.43;31.73;;;;;;;13.02;100.00;96920.81;5029971;28;102564;-65
2022/04/15 07:37:25;;;;;;;35.93;32.23;;;;;;;13.13;100.00;96914.53;5032704;28;101962;-65
2022/04/15 07:39:52;;;;;;;36.13;32.47;;;;;;;13.33;100.00;96918.16;5028661;28;104211;-65
2022/04/15 07:42:21;;;;;;;36.23;32.33;;;;;;;13.43;100.00;96918.25;5028999;28;101898;-65
2022/04/15 07:44:47;;;;;;;35.70;31.73;;;;;;;13.48;100.00;96920.16;5028994;28;105860;-65
2022/04/15 07:47:15;;;;;;;35.30;30.03;;;;;;;13.60;100.00;96918.09;5028529;28;105569;-65
2022/04/15 07:49:42;;;;;;;33.33;29.83;;;;;;;13.56;100.00;96919.66;5029011;28;101976;-65
2022/04/15 07:52:09;;;;;;;33.17;29.77;;;;;;;13.61;100.00;96927.72;5030517;28;102655;-65
2022/04/15 07:54:36;;;;;;;31.93;28.60;;;;;;;13.60;100.00;96923.44;5028208;28;105344;-65
2022/04/15 07:57:03;;;;;;;30.60;27.47;;;;;;;13.61;100.00;96930.41;5029016;28;102138;-65
2022/04/15 07:59:32;;;;;;;31.80;28.37;;;;;;;13.65;100.00;96934.19;5033260;28;102507;-65
2022/04/15 08:02:02;;;;;;;31.70;28.43;;;;;;;13.89;100.00;96928.22;5029870;28;101932;-65
2022/04/15 08:04:31;;;;;;;31.93;28.53;;;;;;;13.94;100.00;96922.88;5028897;28;105051;-65
2022/04/15 08:06:58;;;;;;;33.70;30.30;;;;;;;14.20;100.00;96916.66;5028213;28;102684;-65
2022/04/15 08:09:25;;;;;;;31.00;27.87;;;;;;;13.96;100.00;96918.06;5027506;28;101967;-65
2022/04/15 08:11:52;;;;;;;30.10;27.17;;;;;;;14.18;100.00;96916.06;5028690;28;105175;-65
2022/04/15 08:14:19;;;;;;;31.60;28.53;;;;;;;14.46;100.00;96928.28;5029766;28;102890;-65
2022/04/15 08:16:47;;;;;;;30.37;27.47;;;;;;;14.29;100.00;96928.47;5028562;28;102257;-65
2022/04/15 08:19:14;;;;;;;30.00;26.57;;;;;;;14.43;100.00;96926.09;5028203;28;104817;-65
2022/04/15 08:21:41;;;;;;;30.90;27.67;;;;;;;14.60;100.00;96930.19;5031525;28;105466;-65
2022/04/15 08:24:08;;;;;;;28.83;26.07;;;;;;;14.68;100.00;96928.91;5029874;28;104057;-65
2022/04/15 08:26:35;;;;;;;28.00;25.23;;;;;;;14.53;100.00;96924.28;5028025;28;105402;-65
2022/04/15 08:29:02;;;;;;;27.70;24.90;;;;;;;14.67;100.00;96924.63;5028500;28;101979;-65
2022/04/15 08:31:29;;;;;;;29.27;26.23;;;;;;;14.81;100.00;96926.53;5028099;28;104110;-65
2022/04/15 08:33:58;;;;;;;26.70;23.97;;;;;;;14.88;100.00;96931.66;5027776;28;106508;-65
2022/04/15 08:36:26;;;;;;;26.93;24.13;;;;;;;14.92;100.00;96924.66;5028463;28;102111;-65
2022/04/15 08:38:53;;;;;;;27.27;24.73;;;;;;;14.89;100.00;96930.56;5028456;28;104105;-65
2022/04/15 08:41:22;;;;;;;26.00;23.60;;;;;;;14.90;100.00;96926.81;5027704;28;105629;-65
2022/04/15 08:43:50;;;;;;;26.63;23.93;;;;;;;14.65;100.00;96932.91;5030559;28;101864;-65
2022/04/15 08:46:19;;;;;;;25.80;23.23;;;;;;;14.71;100.00;96931.06;5027289;28;105606;-65
2022/04/15 08:48:48;;;;;;;26.83;24.33;;;;;;;15.00;100.00;96935.66;5027866;28;101882;-65
2022/04/15 08:51:17;;;;;;;26.43;23.83;;;;;;;14.93;100.00;96928.97;5028270;28;105257;-65
2022/04/15 08:53:46;;;;;;;26.37;23.60;;;;;;;14.92;100.00;96930.84;5027659;28;105778;-65
2022/04/15 08:56:13;;;;;;;25.73;23.23;;;;;;;15.24;100.00;96926.09;5027682;28;102211;-65
2022/04/15 08:58:40;;;;;;;25.37;22.97;;;;;;;15.60;100.00;96929.63;5029122;27;102840;-65
2022/04/15 09:01:07;;;;;;;26.17;23.50;;;;;;;15.90;100.00;96925.03;5027183;28;105090;-65
2022/04/15 09:03:35;;;;;;;24.23;22.03;;;;;;;16.16;100.00;96929.28;5031424;28;102249;-65
2022/04/15 09:06:03;;;;;;;24.87;22.63;;;;;;;16.09;100.00;96922.59;5027422;28;106554;-65
2022/04/15 09:08:31;;;;;;;23.10;20.83;;;;;;;15.53;100.00;96921.84;5028013;28;102028;-65
2022/04/15 09:10:59;;;;;;;23.53;21.33;;;;;;;15.61;100.00;96920.50;5061338;27;105525;-65
2022/04/15 09:13:31;;;;;;;22.53;20.40;;;;;;;15.66;100.00;96917.81;5027265;28;105982;-65
2022/04/15 09:16:00;;;;;;;22.00;19.90;;;;;;;15.41;100.00;96926.66;5029160;27;101767;-65
2022/04/15 09:18:32;;;;;;;23.60;21.30;;;;;;;15.18;100.00;96920.97;5027673;28;104849;-65
2022/04/15 09:21:18;;;;;;;23.67;21.37;;;;;;;15.20;100.00;96924.22;5028320;27;103274;-65
2022/04/15 09:23:49;;;;;;;22.93;20.70;;;;;;;15.17;100.00;96924.72;5029241;27;101772;-65
2022/04/15 09:26:16;;;;;;;23.93;21.67;;;;;;;15.11;100.00;96923.94;5032093;28;102931;-65
2022/04/15 09:28:43;;;;;;;23.03;20.73;;;;;;;15.02;100.00;96928.19;5028990;27;101827;-65
2022/04/15 09:31:14;;;;;;;22.67;20.47;;;;;;;15.02;100.00;96932.72;5027646;28;103579;-65
2022/04/15 09:33:52;;;;;;;21.63;19.53;;;;;;;15.18;100.00;96931.69;5026849;28;103762;-65
2022/04/15 09:36:27;;;;;;;21.93;19.93;;;;;;;15.17;100.00;96922.88;5027364;28;101959;-65
2022/04/15 09:38:59;;;;;;;20.23;18.17;;;;;;;15.44;100.00;96922.66;5027263;28;105604;-65
2022/04/15 09:41:29;;;;;;;21.90;19.63;;;;;;;15.43;100.00;96926.41;5027009;28;105888;-65
2022/04/15 09:43:58;;;;;;;20.10;18.20;;;;;;;15.45;100.00;96929.59;5027262;28;101860;-65
2022/04/15 09:46:27;;;;;;;22.13;19.87;;;;;;;15.62;100.00;96927.47;5027249;28;105695;-65
2022/04/15 09:49:03;;;;;;;21.83;19.73;;;;;;;15.87;100.00;96920.19;5030054;28;105512;-65
2022/04/15 09:51:42;;;;;;;20.90;18.90;;;;;;;16.23;100.00;96916.38;5027281;28;105072;-65
2022/04/15 09:54:12;;;;;;;22.63;20.53;;;;;;;16.67;100.00;96913.84;5026717;28;103774;-65
2022/04/15 09:56:42;;;;;;;20.97;19.00;;;;;;;16.79;100.00;96915.09;5027016;28;101843;-65
2022/04/15 09:59:11;;;;;;;20.77;18.47;;;;;;;16.99;100.00;96916.88;5028356;28;102340;-65
2022/04/15 10:01:44;;;;;;;19.97;18.03;;;;;;;17.35;100.00;96915.56;5027953;28;103227;-65
2022/04/15 10:04:11;;;;;;;20.40;18.23;;;;;;;16.82;100.00;96911.88;5028582;27;101827;-65
2022/04/15 10:06:40;;;;;;;20.20;18.30;;;;;;;16.79;100.00;96912.41;5027096;28;105412;-65
2022/04/15 10:09:11;;;;;;;18.60;16.73;;;;;;;16.85;100.00;96908.63;5026603;28;105390;-65
2022/04/15 10:11:40;;;;;;;20.13;18.13;;;;;;;17.69;100.00;96905.63;5032197;28;101942;-65
2022/04/15 10:14:08;;;;;;;17.47;15.77;;;;;;;17.89;100.00;96900.09;5026307;28;105856;-65
2022/04/15 10:16:38;;;;;;;17.13;15.50;;;;;;;17.90;100.00;96897.13;5026881;28;101781;-65
2022/04/15 10:19:06;;;;;;;17.33;15.73;;;;;;;17.99;100.00;96902.69;5026914;28;105578;-65
2022/04/15 10:21:34;;;;;;;16.43;14.93;;;;;;;17.85;100.00;96899.03;5026248;28;106465;-65
2022/04/15 10:24:03;;;;;;;16.47;14.97;;;;;;;17.59;100.00;96897.66;5026621;28;102206;-65
2022/04/15 10:26:35;;;;;;;11.37;10.20;;;;;;;17.16;100.00;96893.94;5026987;28;103981;-65
2022/04/15 10:29:05;;;;;;;13.67;12.30;;;;;;;17.60;100.00;96889.31;5026327;28;105520;-65
2022/04/15 10:31:41;;;;;;;15.73;14.23;;;;;;;17.84;100.00;96886.69;5027008;27;102019;-65
2022/04/15 10:34:13;;;;;;;14.80;13.37;;;;;;;17.79;100.00;96892.09;5034900;28;102380;-65
2022/04/15 10:36:44;;;;;;;14.47;12.97;;;;;;;17.71;100.00;96881.97;5031449;28;102000;-65
2022/04/15 10:39:19;;;;;;;12.60;11.50;;;;;;;17.63;100.00;96887.94;5030397;28;105162;-65
2022/04/15 10:41:55;;;;;;;12.83;11.53;;;;;;;17.60;100.00;96888.53;5029666;28;105451;-65
2022/04/15 10:44:29;;;;;;;12.93;11.57;;;;;;;17.84;100.00;96881.28;5029929;28;102042;-65
2022/04/15 10:47:04;;;;;;;11.37;9.23;;;;;;;17.80;100.00;96888.31;5029732;28;104855;-65
2022/04/15 10:49:32;;;;;;;9.40;8.53;;;;;;;18.07;100.00;96883.19;5030289;28;104188;-65
2022/04/15 10:52:01;;;;;;;9.27;8.47;;;;;;;18.41;99.59;96882.03;5031120;28;101773;-65
2022/04/15 10:54:48;;;;;;;10.03;9.03;;;;;;;18.28;100.00;96882.72;5030941;28;105166;-65
2022/04/15 10:57:17;;;;;;;8.33;7.53;;;;;;;17.93;99.46;96887.69;5033204;28;105110;-65
2022/04/15 11:02:43;;;;;;;8.03;7.33;;;;;;;18.49;81.17;96888.69;5030072;28;105672;-65
2022/04/15 11:05:13;;;;;;;7.17;6.53;;;;;;;18.72;83.79;96882.47;5030855;28;101876;-65
2022/04/15 11:07:51;;;;;;;4.07;3.77;;;;;;;18.65;54.52;96882.03;5030749;28;105241;-65
2022/04/15 11:10:40;;;;;;;4.27;3.93;;;;;;;19.51;50.35;96877.00;5030117;28;105223;-65
2022/04/15 11:13:09;;;;;;;4.80;4.40;;;;;;;19.83;60.34;96871.63;5030672;28;102130;-65